sensor_id;sensor_type;location;lat;lon;timestamp;temperature;humidity
59923;DHT22;45778;51.142;3.732;2023-03-12T00:02:09;5.60;99.90
59923;DHT22;45778;51.142;3.732;2023-03-12T00:04:35;5.70;99.90
59923;DHT22;45778;51.142;3.732;2023-03-12T00:07:02;5.80;99.90
59923;DHT22;45778;51.142;3.732;2023-03-12T00:09:33;5.80;99.90
59923;DHT22;45778;51.142;3.732;2023-03-12T00:11:59;5.70;99.90
59923;DHT22;45778;51.142;3.732;2023-03-12T00:14:24;5.70;99.90
59923;DHT22;45778;51.142;3.732;2023-03-12T00:16:51;5.60;99.90
59923;DHT22;45778;51.142;3.732;2023-03-12T00:19:16;5.50;99.90
59923;DHT22;45778;51.142;3.732;2023-03-12T00:21:42;5.70;99.90
59923;DHT22;45778;51.142;3.732;2023-03-12T00:24:08;5.80;99.90
59923;DHT22;45778;51.142;3.732;2023-03-12T00:26:34;5.70;99.90
59923;DHT22;45778;51.142;3.732;2023-03-12T00:29:00;5.70;99.90
59923;DHT22;45778;51.142;3.732;2023-03-12T00:31:28;5.70;99.90
59923;DHT22;45778;51.142;3.732;2023-03-12T00:33:55;5.80;99.90
59923;DHT22;45778;51.142;3.732;2023-03-12T00:36:22;5.90;99.90
59923;DHT22;45778;51.142;3.732;2023-03-12T00:38:50;5.80;99.90
59923;DHT22;45778;51.142;3.732;2023-03-12T00:41:16;5.70;99.90
59923;DHT22;45778;51.142;3.732;2023-03-12T00:43:44;5.70;99.90
59923;DHT22;45778;51.142;3.732;2023-03-12T00:46:09;5.60;99.90
59923;DHT22;45778;51.142;3.732;2023-03-12T00:48:35;5.70;99.90
59923;DHT22;45778;51.142;3.732;2023-03-12T00:51:01;5.70;99.90
59923;DHT22;45778;51.142;3.732;2023-03-12T00:53:26;5.60;99.90
59923;DHT22;45778;51.142;3.732;2023-03-12T00:55:52;5.50;99.90
59923;DHT22;45778;51.142;3.732;2023-03-12T00:58:18;5.50;99.90
59923;DHT22;45778;51.142;3.732;2023-03-12T01:00:43;5.50;99.90
59923;DHT22;45778;51.142;3.732;2023-03-12T01:03:09;5.40;99.90
59923;DHT22;45778;51.142;3.732;2023-03-12T01:05:35;5.60;99.90
59923;DHT22;45778;51.142;3.732;2023-03-12T01:08:03;5.40;99.90
59923;DHT22;45778;51.142;3.732;2023-03-12T01:10:29;5.40;99.90
59923;DHT22;45778;51.142;3.732;2023-03-12T01:12:55;5.40;99.90
59923;DHT22;45778;51.142;3.732;2023-03-12T01:15:21;5.30;99.90
59923;DHT22;45778;51.142;3.732;2023-03-12T01:17:47;5.30;99.90
59923;DHT22;45778;51.142;3.732;2023-03-12T01:20:13;5.30;99.90
59923;DHT22;45778;51.142;3.732;2023-03-12T01:22:39;5.40;99.90
59923;DHT22;45778;51.142;3.732;2023-03-12T01:25:05;5.30;99.90
59923;DHT22;45778;51.142;3.732;2023-03-12T01:27:31;5.30;99.90
59923;DHT22;45778;51.142;3.732;2023-03-12T01:29:56;5.20;99.90
59923;DHT22;45778;51.142;3.732;2023-03-12T01:32:22;5.10;99.90
59923;DHT22;45778;51.142;3.732;2023-03-12T01:34:48;5.20;99.90
59923;DHT22;45778;51.142;3.732;2023-03-12T01:37:14;5.30;99.90
59923;DHT22;45778;51.142;3.732;2023-03-12T01:39:39;5.20;99.90
59923;DHT22;45778;51.142;3.732;2023-03-12T01:42:05;5.10;99.90
59923;DHT22;45778;51.142;3.732;2023-03-12T01:44:51;5.20;99.90
59923;DHT22;45778;51.142;3.732;2023-03-12T01:47:17;5.30;99.90
59923;DHT22;45778;51.142;3.732;2023-03-12T01:49:44;5.20;99.90
59923;DHT22;45778;51.142;3.732;2023-03-12T01:52:16;5.20;99.90
59923;DHT22;45778;51.142;3.732;2023-03-12T01:57:44;5.10;99.90
59923;DHT22;45778;51.142;3.732;2023-03-12T02:00:17;5.20;99.90
59923;DHT22;45778;51.142;3.732;2023-03-12T02:02:45;5.20;99.90
59923;DHT22;45778;51.142;3.732;2023-03-12T02:05:24;5.20;99.90
59923;DHT22;45778;51.142;3.732;2023-03-12T02:07:52;5.10;99.90
59923;DHT22;45778;51.142;3.732;2023-03-12T02:10:18;5.20;99.90
59923;DHT22;45778;51.142;3.732;2023-03-12T02:12:44;5.10;99.90
59923;DHT22;45778;51.142;3.732;2023-03-12T02:15:10;5.20;99.90
59923;DHT22;45778;51.142;3.732;2023-03-12T02:17:37;5.00;99.90
59923;DHT22;45778;51.142;3.732;2023-03-12T02:20:21;4.90;99.90
59923;DHT22;45778;51.142;3.732;2023-03-12T02:22:56;4.80;99.90
59923;DHT22;45778;51.142;3.732;2023-03-12T02:25:37;4.80;99.90
59923;DHT22;45778;51.142;3.732;2023-03-12T02:28:08;4.80;99.90
59923;DHT22;45778;51.142;3.732;2023-03-12T02:30:34;4.80;99.90
59923;DHT22;45778;51.142;3.732;2023-03-12T02:33:05;4.80;99.90
59923;DHT22;45778;51.142;3.732;2023-03-12T02:35:32;4.80;99.90
59923;DHT22;45778;51.142;3.732;2023-03-12T02:37:57;4.70;99.90
59923;DHT22;45778;51.142;3.732;2023-03-12T02:40:43;4.80;99.90
59923;DHT22;45778;51.142;3.732;2023-03-12T02:43:10;4.80;99.90
59923;DHT22;45778;51.142;3.732;2023-03-12T02:45:37;4.90;99.90
59923;DHT22;45778;51.142;3.732;2023-03-12T02:48:07;4.80;99.90
59923;DHT22;45778;51.142;3.732;2023-03-12T02:50:33;4.90;99.90
59923;DHT22;45778;51.142;3.732;2023-03-12T02:52:59;4.90;99.90
59923;DHT22;45778;51.142;3.732;2023-03-12T02:55:24;4.90;99.90
59923;DHT22;45778;51.142;3.732;2023-03-12T02:57:50;4.80;99.90
59923;DHT22;45778;51.142;3.732;2023-03-12T03:00:17;4.90;99.90
59923;DHT22;45778;51.142;3.732;2023-03-12T03:02:42;5.00;99.90
59923;DHT22;45778;51.142;3.732;2023-03-12T03:05:10;4.90;99.90
59923;DHT22;45778;51.142;3.732;2023-03-12T03:07:36;5.00;99.90
59923;DHT22;45778;51.142;3.732;2023-03-12T03:10:03;5.10;99.90
59923;DHT22;45778;51.142;3.732;2023-03-12T03:12:34;5.00;99.90
59923;DHT22;45778;51.142;3.732;2023-03-12T03:15:00;5.00;99.90
59923;DHT22;45778;51.142;3.732;2023-03-12T03:17:27;4.90;99.90
59923;DHT22;45778;51.142;3.732;2023-03-12T03:19:53;5.00;99.90
59923;DHT22;45778;51.142;3.732;2023-03-12T03:22:20;5.00;99.90
59923;DHT22;45778;51.142;3.732;2023-03-12T03:24:46;5.00;99.90
59923;DHT22;45778;51.142;3.732;2023-03-12T03:27:12;5.00;99.90
59923;DHT22;45778;51.142;3.732;2023-03-12T03:29:38;5.10;99.90
59923;DHT22;45778;51.142;3.732;2023-03-12T03:32:04;5.10;99.90
59923;DHT22;45778;51.142;3.732;2023-03-12T03:34:30;5.10;99.90
59923;DHT22;45778;51.142;3.732;2023-03-12T03:36:56;5.20;99.90
59923;DHT22;45778;51.142;3.732;2023-03-12T03:39:21;5.10;99.90
59923;DHT22;45778;51.142;3.732;2023-03-12T03:41:47;5.10;99.90
59923;DHT22;45778;51.142;3.732;2023-03-12T03:44:13;5.10;99.90
59923;DHT22;45778;51.142;3.732;2023-03-12T03:46:39;5.10;99.90
59923;DHT22;45778;51.142;3.732;2023-03-12T03:49:05;5.00;99.90
59923;DHT22;45778;51.142;3.732;2023-03-12T03:51:31;5.00;99.90
59923;DHT22;45778;51.142;3.732;2023-03-12T03:53:58;5.10;99.90
59923;DHT22;45778;51.142;3.732;2023-03-12T03:56:25;5.10;99.90
59923;DHT22;45778;51.142;3.732;2023-03-12T03:58:51;5.20;99.90
59923;DHT22;45778;51.142;3.732;2023-03-12T04:01:17;5.20;99.90
59923;DHT22;45778;51.142;3.732;2023-03-12T04:03:43;5.30;99.90
59923;DHT22;45778;51.142;3.732;2023-03-12T04:06:09;5.50;99.90
59923;DHT22;45778;51.142;3.732;2023-03-12T04:08:36;5.50;99.90
59923;DHT22;45778;51.142;3.732;2023-03-12T04:11:13;5.40;99.90
59923;DHT22;45778;51.142;3.732;2023-03-12T04:13:40;5.50;99.90
59923;DHT22;45778;51.142;3.732;2023-03-12T04:16:06;5.50;99.90
59923;DHT22;45778;51.142;3.732;2023-03-12T04:18:32;5.50;99.90
59923;DHT22;45778;51.142;3.732;2023-03-12T04:20:58;5.50;99.90
59923;DHT22;45778;51.142;3.732;2023-03-12T04:23:24;5.60;99.90
59923;DHT22;45778;51.142;3.732;2023-03-12T04:25:49;5.60;99.90
59923;DHT22;45778;51.142;3.732;2023-03-12T04:28:15;5.60;99.90
59923;DHT22;45778;51.142;3.732;2023-03-12T04:30:41;5.60;99.90
59923;DHT22;45778;51.142;3.732;2023-03-12T04:33:06;5.40;99.90
59923;DHT22;45778;51.142;3.732;2023-03-12T04:35:32;5.40;99.90
59923;DHT22;45778;51.142;3.732;2023-03-12T04:38:00;5.50;99.90
59923;DHT22;45778;51.142;3.732;2023-03-12T04:40:26;5.30;99.90
59923;DHT22;45778;51.142;3.732;2023-03-12T04:42:52;5.30;99.90
59923;DHT22;45778;51.142;3.732;2023-03-12T04:45:18;5.40;99.90
59923;DHT22;45778;51.142;3.732;2023-03-12T04:47:44;5.40;99.90
59923;DHT22;45778;51.142;3.732;2023-03-12T04:50:10;5.40;99.90
59923;DHT22;45778;51.142;3.732;2023-03-12T04:52:37;5.60;99.90
59923;DHT22;45778;51.142;3.732;2023-03-12T04:55:03;5.60;99.90
59923;DHT22;45778;51.142;3.732;2023-03-12T04:57:29;5.60;99.90
59923;DHT22;45778;51.142;3.732;2023-03-12T04:59:54;5.50;99.90
59923;DHT22;45778;51.142;3.732;2023-03-12T05:02:20;5.50;99.90
59923;DHT22;45778;51.142;3.732;2023-03-12T05:04:46;5.50;99.90
59923;DHT22;45778;51.142;3.732;2023-03-12T05:07:11;5.60;99.90
59923;DHT22;45778;51.142;3.732;2023-03-12T05:09:37;5.50;99.90
59923;DHT22;45778;51.142;3.732;2023-03-12T05:12:03;5.50;99.90
59923;DHT22;45778;51.142;3.732;2023-03-12T05:14:29;5.50;99.90
59923;DHT22;45778;51.142;3.732;2023-03-12T05:16:54;5.50;99.90
59923;DHT22;45778;51.142;3.732;2023-03-12T05:19:20;5.50;99.90
59923;DHT22;45778;51.142;3.732;2023-03-12T05:21:46;5.50;99.90
59923;DHT22;45778;51.142;3.732;2023-03-12T05:24:12;5.60;99.90
59923;DHT22;45778;51.142;3.732;2023-03-12T05:26:38;5.60;99.90
59923;DHT22;45778;51.142;3.732;2023-03-12T05:29:05;5.70;99.90
59923;DHT22;45778;51.142;3.732;2023-03-12T05:31:31;5.70;99.90
59923;DHT22;45778;51.142;3.732;2023-03-12T05:34:00;5.60;99.90
59923;DHT22;45778;51.142;3.732;2023-03-12T05:36:26;5.70;99.90
59923;DHT22;45778;51.142;3.732;2023-03-12T05:38:52;5.70;99.90
59923;DHT22;45778;51.142;3.732;2023-03-12T05:41:20;5.70;99.90
59923;DHT22;45778;51.142;3.732;2023-03-12T05:43:46;5.80;99.90
59923;DHT22;45778;51.142;3.732;2023-03-12T05:46:13;5.80;99.90
59923;DHT22;45778;51.142;3.732;2023-03-12T05:48:38;5.80;99.90
59923;DHT22;45778;51.142;3.732;2023-03-12T05:51:04;5.80;99.90
59923;DHT22;45778;51.142;3.732;2023-03-12T05:53:30;5.80;99.90
59923;DHT22;45778;51.142;3.732;2023-03-12T05:56:02;5.80;99.90
59923;DHT22;45778;51.142;3.732;2023-03-12T05:58:28;5.80;99.90
59923;DHT22;45778;51.142;3.732;2023-03-12T06:00:53;5.90;99.90
59923;DHT22;45778;51.142;3.732;2023-03-12T06:03:19;5.90;99.90
59923;DHT22;45778;51.142;3.732;2023-03-12T06:05:45;6.00;99.90
59923;DHT22;45778;51.142;3.732;2023-03-12T06:08:13;6.10;99.90
59923;DHT22;45778;51.142;3.732;2023-03-12T06:10:39;6.10;99.90
59923;DHT22;45778;51.142;3.732;2023-03-12T06:13:05;6.20;99.90
59923;DHT22;45778;51.142;3.732;2023-03-12T06:15:31;6.20;99.90
59923;DHT22;45778;51.142;3.732;2023-03-12T06:17:57;6.20;99.90
59923;DHT22;45778;51.142;3.732;2023-03-12T06:20:23;6.30;99.90
59923;DHT22;45778;51.142;3.732;2023-03-12T06:22:49;6.30;99.90
59923;DHT22;45778;51.142;3.732;2023-03-12T06:25:14;6.40;99.90
59923;DHT22;45778;51.142;3.732;2023-03-12T06:27:40;6.40;99.90
59923;DHT22;45778;51.142;3.732;2023-03-12T06:30:06;6.50;99.90
59923;DHT22;45778;51.142;3.732;2023-03-12T06:32:32;6.50;99.90
59923;DHT22;45778;51.142;3.732;2023-03-12T06:34:58;6.50;99.90
59923;DHT22;45778;51.142;3.732;2023-03-12T06:37:29;6.60;99.90
59923;DHT22;45778;51.142;3.732;2023-03-12T06:39:54;6.60;99.90
59923;DHT22;45778;51.142;3.732;2023-03-12T06:42:20;6.60;99.90
59923;DHT22;45778;51.142;3.732;2023-03-12T06:44:47;6.70;99.90
59923;DHT22;45778;51.142;3.732;2023-03-12T06:47:13;6.80;99.90
59923;DHT22;45778;51.142;3.732;2023-03-12T06:49:39;6.80;99.90
59923;DHT22;45778;51.142;3.732;2023-03-12T06:52:05;6.80;99.90
59923;DHT22;45778;51.142;3.732;2023-03-12T06:54:30;6.90;99.90
59923;DHT22;45778;51.142;3.732;2023-03-12T06:56:56;6.90;99.90
59923;DHT22;45778;51.142;3.732;2023-03-12T06:59:24;7.00;99.90
59923;DHT22;45778;51.142;3.732;2023-03-12T07:01:50;7.00;99.90
59923;DHT22;45778;51.142;3.732;2023-03-12T07:04:15;7.10;99.90
59923;DHT22;45778;51.142;3.732;2023-03-12T07:06:41;7.20;99.90
59923;DHT22;45778;51.142;3.732;2023-03-12T07:09:07;7.30;99.90
59923;DHT22;45778;51.142;3.732;2023-03-12T07:11:33;7.40;99.90
59923;DHT22;45778;51.142;3.732;2023-03-12T07:13:59;7.40;99.90
59923;DHT22;45778;51.142;3.732;2023-03-12T07:16:26;7.50;99.90
59923;DHT22;45778;51.142;3.732;2023-03-12T07:18:51;7.60;99.90
59923;DHT22;45778;51.142;3.732;2023-03-12T07:21:17;7.60;99.90
59923;DHT22;45778;51.142;3.732;2023-03-12T07:23:48;7.70;99.90
59923;DHT22;45778;51.142;3.732;2023-03-12T07:26:14;7.80;99.90
59923;DHT22;45778;51.142;3.732;2023-03-12T07:28:40;7.90;99.90
59923;DHT22;45778;51.142;3.732;2023-03-12T07:31:06;7.90;99.90
59923;DHT22;45778;51.142;3.732;2023-03-12T07:33:32;8.00;99.90
59923;DHT22;45778;51.142;3.732;2023-03-12T07:35:58;8.10;99.90
59923;DHT22;45778;51.142;3.732;2023-03-12T07:38:23;8.20;99.90
59923;DHT22;45778;51.142;3.732;2023-03-12T07:40:51;8.20;99.90
59923;DHT22;45778;51.142;3.732;2023-03-12T07:43:17;8.40;99.90
59923;DHT22;45778;51.142;3.732;2023-03-12T07:45:43;8.40;99.90
59923;DHT22;45778;51.142;3.732;2023-03-12T07:48:09;8.40;99.90
59923;DHT22;45778;51.142;3.732;2023-03-12T07:50:35;8.50;99.90
59923;DHT22;45778;51.142;3.732;2023-03-12T07:53:01;8.50;99.90
59923;DHT22;45778;51.142;3.732;2023-03-12T07:55:29;8.60;99.90
59923;DHT22;45778;51.142;3.732;2023-03-12T07:57:55;8.70;99.90
59923;DHT22;45778;51.142;3.732;2023-03-12T08:00:26;8.70;99.90
59923;DHT22;45778;51.142;3.732;2023-03-12T08:02:52;8.80;99.90
59923;DHT22;45778;51.142;3.732;2023-03-12T08:05:18;8.80;99.90
59923;DHT22;45778;51.142;3.732;2023-03-12T08:07:44;8.90;99.90
59923;DHT22;45778;51.142;3.732;2023-03-12T08:10:10;9.00;99.90
59923;DHT22;45778;51.142;3.732;2023-03-12T08:12:36;9.00;99.90
59923;DHT22;45778;51.142;3.732;2023-03-12T08:15:05;9.10;99.90
59923;DHT22;45778;51.142;3.732;2023-03-12T08:17:32;9.20;99.90
59923;DHT22;45778;51.142;3.732;2023-03-12T08:19:58;9.30;99.90
59923;DHT22;45778;51.142;3.732;2023-03-12T08:22:24;9.40;99.90
59923;DHT22;45778;51.142;3.732;2023-03-12T08:24:49;9.50;99.90
59923;DHT22;45778;51.142;3.732;2023-03-12T08:27:15;9.60;99.90
59923;DHT22;45778;51.142;3.732;2023-03-12T08:29:41;9.50;99.90
59923;DHT22;45778;51.142;3.732;2023-03-12T08:32:07;9.60;99.90
59923;DHT22;45778;51.142;3.732;2023-03-12T08:34:35;9.70;99.90
59923;DHT22;45778;51.142;3.732;2023-03-12T08:37:01;9.70;99.90
59923;DHT22;45778;51.142;3.732;2023-03-12T08:39:28;9.90;99.90
59923;DHT22;45778;51.142;3.732;2023-03-12T08:41:53;10.00;99.90
59923;DHT22;45778;51.142;3.732;2023-03-12T08:44:21;10.00;99.90
59923;DHT22;45778;51.142;3.732;2023-03-12T08:46:47;10.00;99.90
59923;DHT22;45778;51.142;3.732;2023-03-12T08:49:13;10.00;99.90
59923;DHT22;45778;51.142;3.732;2023-03-12T08:51:38;10.00;99.90
59923;DHT22;45778;51.142;3.732;2023-03-12T08:54:04;10.10;99.90
59923;DHT22;45778;51.142;3.732;2023-03-12T08:56:31;10.10;99.90
59923;DHT22;45778;51.142;3.732;2023-03-12T08:58:57;10.10;99.90
59923;DHT22;45778;51.142;3.732;2023-03-12T09:01:23;10.10;99.90
59923;DHT22;45778;51.142;3.732;2023-03-12T09:03:49;10.10;99.90
59923;DHT22;45778;51.142;3.732;2023-03-12T09:06:17;10.10;99.90
59923;DHT22;45778;51.142;3.732;2023-03-12T09:08:44;10.20;99.90
59923;DHT22;45778;51.142;3.732;2023-03-12T09:11:11;10.30;99.90
59923;DHT22;45778;51.142;3.732;2023-03-12T09:13:38;10.30;99.90
59923;DHT22;45778;51.142;3.732;2023-03-12T09:16:04;10.50;99.90
59923;DHT22;45778;51.142;3.732;2023-03-12T09:18:30;10.60;99.90
59923;DHT22;45778;51.142;3.732;2023-03-12T09:20:57;10.70;99.90
59923;DHT22;45778;51.142;3.732;2023-03-12T09:23:23;10.70;99.90
59923;DHT22;45778;51.142;3.732;2023-03-12T09:25:49;10.90;99.90
59923;DHT22;45778;51.142;3.732;2023-03-12T09:28:15;11.10;99.90
59923;DHT22;45778;51.142;3.732;2023-03-12T09:30:41;11.30;99.90
59923;DHT22;45778;51.142;3.732;2023-03-12T09:33:07;11.30;99.90
59923;DHT22;45778;51.142;3.732;2023-03-12T09:35:33;11.20;99.90
59923;DHT22;45778;51.142;3.732;2023-03-12T09:37:59;11.10;99.90
59923;DHT22;45778;51.142;3.732;2023-03-12T09:40:28;11.00;99.90
59923;DHT22;45778;51.142;3.732;2023-03-12T09:43:01;11.10;99.90
59923;DHT22;45778;51.142;3.732;2023-03-12T09:45:37;11.00;99.90
59923;DHT22;45778;51.142;3.732;2023-03-12T09:48:05;11.00;99.90
59923;DHT22;45778;51.142;3.732;2023-03-12T09:50:33;11.10;99.90
59923;DHT22;45778;51.142;3.732;2023-03-12T09:53:10;11.10;99.90
59923;DHT22;45778;51.142;3.732;2023-03-12T09:55:42;11.20;99.90
59923;DHT22;45778;51.142;3.732;2023-03-12T09:58:16;11.30;99.90
59923;DHT22;45778;51.142;3.732;2023-03-12T10:00:44;11.40;99.90
59923;DHT22;45778;51.142;3.732;2023-03-12T10:03:25;11.60;99.90
59923;DHT22;45778;51.142;3.732;2023-03-12T10:19:58;12.00;99.90
59923;DHT22;45778;51.142;3.732;2023-03-12T10:23:05;12.00;99.90
59923;DHT22;45778;51.142;3.732;2023-03-12T10:28:36;11.90;99.90
59923;DHT22;45778;51.142;3.732;2023-03-12T10:31:16;11.90;99.90
59923;DHT22;45778;51.142;3.732;2023-03-12T10:33:54;12.10;99.90
59923;DHT22;45778;51.142;3.732;2023-03-12T10:36:44;12.20;99.90
59923;DHT22;45778;51.142;3.732;2023-03-12T10:39:14;12.20;99.90
59923;DHT22;45778;51.142;3.732;2023-03-12T10:41:42;12.40;99.90
59923;DHT22;45778;51.142;3.732;2023-03-12T10:44:17;12.40;99.90
59923;DHT22;45778;51.142;3.732;2023-03-12T10:49:34;12.60;99.90
59923;DHT22;45778;51.142;3.732;2023-03-12T10:52:17;12.50;99.90
59923;DHT22;45778;51.142;3.732;2023-03-12T10:54:45;12.60;99.90
59923;DHT22;45778;51.142;3.732;2023-03-12T10:57:13;12.60;99.90
59923;DHT22;45778;51.142;3.732;2023-03-12T10:59:45;12.50;99.90
59923;DHT22;45778;51.142;3.732;2023-03-12T11:04:57;12.40;99.90
59923;DHT22;45778;51.142;3.732;2023-03-12T11:07:31;12.40;99.90
59923;DHT22;45778;51.142;3.732;2023-03-12T11:13:19;13.00;99.90
59923;DHT22;45778;51.142;3.732;2023-03-12T11:15:46;12.80;99.90
59923;DHT22;45778;51.142;3.732;2023-03-12T11:18:33;12.50;99.90
59923;DHT22;45778;51.142;3.732;2023-03-12T11:23:33;12.40;99.90
59923;DHT22;45778;51.142;3.732;2023-03-12T11:26:03;12.40;99.90
59923;DHT22;45778;51.142;3.732;2023-03-12T11:28:37;12.40;99.90
59923;DHT22;45778;51.142;3.732;2023-03-12T11:31:07;12.40;99.90
59923;DHT22;45778;51.142;3.732;2023-03-12T11:33:34;12.50;99.90
59923;DHT22;45778;51.142;3.732;2023-03-12T11:38:40;12.50;99.90
59923;DHT22;45778;51.142;3.732;2023-03-12T11:44:23;12.60;99.90
59923;DHT22;45778;51.142;3.732;2023-03-12T11:49:52;12.60;99.90
59923;DHT22;45778;51.142;3.732;2023-03-12T11:52:47;12.50;99.90
59923;DHT22;45778;51.142;3.732;2023-03-12T11:55:20;12.30;99.90
59923;DHT22;45778;51.142;3.732;2023-03-12T12:00:32;12.40;99.90
59923;DHT22;45778;51.142;3.732;2023-03-12T12:08:44;13.20;99.90
59923;DHT22;45778;51.142;3.732;2023-03-12T12:24:50;13.40;99.90
59923;DHT22;45778;51.142;3.732;2023-03-12T12:27:28;13.50;99.90
59923;DHT22;45778;51.142;3.732;2023-03-12T12:37:22;13.20;99.90
59923;DHT22;45778;51.142;3.732;2023-03-12T12:45:27;13.50;99.90
59923;DHT22;45778;51.142;3.732;2023-03-12T12:48:06;13.70;99.90
59923;DHT22;45778;51.142;3.732;2023-03-12T12:50:37;13.70;99.90
59923;DHT22;45778;51.142;3.732;2023-03-12T12:56:14;13.80;99.90
59923;DHT22;45778;51.142;3.732;2023-03-12T13:01:08;13.50;99.90
59923;DHT22;45778;51.142;3.732;2023-03-12T13:03:36;13.40;99.90
59923;DHT22;45778;51.142;3.732;2023-03-12T13:06:04;13.50;99.90
59923;DHT22;45778;51.142;3.732;2023-03-12T13:14:33;13.70;99.90
59923;DHT22;45778;51.142;3.732;2023-03-12T13:16:37;13.40;99.90
59923;DHT22;45778;51.142;3.732;2023-03-12T13:24:53;12.90;99.90
59923;DHT22;45778;51.142;3.732;2023-03-12T13:27:30;13.20;99.90
59923;DHT22;45778;51.142;3.732;2023-03-12T13:29:56;13.60;99.90
59923;DHT22;45778;51.142;3.732;2023-03-12T13:32:36;13.50;99.90
59923;DHT22;45778;51.142;3.732;2023-03-12T13:45:39;13.40;99.90
59923;DHT22;45778;51.142;3.732;2023-03-12T13:48:14;13.40;99.90
59923;DHT22;45778;51.142;3.732;2023-03-12T13:50:49;13.10;99.90
59923;DHT22;45778;51.142;3.732;2023-03-12T13:53:22;12.90;99.90
59923;DHT22;45778;51.142;3.732;2023-03-12T13:55:59;12.60;99.90
59923;DHT22;45778;51.142;3.732;2023-03-12T13:58:26;12.60;99.90
59923;DHT22;45778;51.142;3.732;2023-03-12T14:01:02;12.70;99.90
59923;DHT22;45778;51.142;3.732;2023-03-12T14:06:06;13.20;99.90
59923;DHT22;45778;51.142;3.732;2023-03-12T14:16:35;13.60;99.90
59923;DHT22;45778;51.142;3.732;2023-03-12T14:19:04;13.50;99.90
59923;DHT22;45778;51.142;3.732;2023-03-12T14:21:34;13.40;99.90
59923;DHT22;45778;51.142;3.732;2023-03-12T14:24:01;13.40;99.90
59923;DHT22;45778;51.142;3.732;2023-03-12T14:26:31;13.50;99.90
59923;DHT22;45778;51.142;3.732;2023-03-12T14:29:08;13.70;99.90
59923;DHT22;45778;51.142;3.732;2023-03-12T14:31:35;13.30;99.90
59923;DHT22;45778;51.142;3.732;2023-03-12T14:34:15;13.10;99.90
59923;DHT22;45778;51.142;3.732;2023-03-12T14:39:35;12.70;99.90
59923;DHT22;45778;51.142;3.732;2023-03-12T14:42:06;12.50;99.90
59923;DHT22;45778;51.142;3.732;2023-03-12T14:44:34;12.30;99.90
59923;DHT22;45778;51.142;3.732;2023-03-12T14:47:03;12.20;99.90
59923;DHT22;45778;51.142;3.732;2023-03-12T14:49:41;12.20;99.90
59923;DHT22;45778;51.142;3.732;2023-03-12T14:52:19;12.10;99.90
59923;DHT22;45778;51.142;3.732;2023-03-12T14:55:00;12.20;99.90
59923;DHT22;45778;51.142;3.732;2023-03-12T14:57:26;12.20;99.90
59923;DHT22;45778;51.142;3.732;2023-03-12T14:59:59;12.20;99.90
59923;DHT22;45778;51.142;3.732;2023-03-12T15:02:28;12.20;99.90
59923;DHT22;45778;51.142;3.732;2023-03-12T15:04:56;12.20;99.90
59923;DHT22;45778;51.142;3.732;2023-03-12T15:07:43;12.20;99.90
59923;DHT22;45778;51.142;3.732;2023-03-12T15:10:23;12.20;99.90
59923;DHT22;45778;51.142;3.732;2023-03-12T15:12:53;12.10;99.90
59923;DHT22;45778;51.142;3.732;2023-03-12T15:18:11;12.00;99.90
59923;DHT22;45778;51.142;3.732;2023-03-12T15:20:38;12.00;99.90
59923;DHT22;45778;51.142;3.732;2023-03-12T15:23:05;12.00;99.90
59923;DHT22;45778;51.142;3.732;2023-03-12T15:25:33;12.00;99.90
59923;DHT22;45778;51.142;3.732;2023-03-12T15:28:21;11.90;99.90
59923;DHT22;45778;51.142;3.732;2023-03-12T15:31:12;11.90;99.90
59923;DHT22;45778;51.142;3.732;2023-03-12T15:33:39;12.00;99.90
59923;DHT22;45778;51.142;3.732;2023-03-12T15:42:10;11.80;99.90
59923;DHT22;45778;51.142;3.732;2023-03-12T15:44:45;11.90;99.90
59923;DHT22;45778;51.142;3.732;2023-03-12T15:47:17;11.90;99.90
59923;DHT22;45778;51.142;3.732;2023-03-12T15:52:35;11.80;99.90
59923;DHT22;45778;51.142;3.732;2023-03-12T15:55:22;11.80;99.90
59923;DHT22;45778;51.142;3.732;2023-03-12T15:57:53;11.70;99.90
59923;DHT22;45778;51.142;3.732;2023-03-12T16:00:24;11.60;99.90
59923;DHT22;45778;51.142;3.732;2023-03-12T16:02:55;11.50;99.90
59923;DHT22;45778;51.142;3.732;2023-03-12T16:07:52;11.50;99.90
59923;DHT22;45778;51.142;3.732;2023-03-12T16:10:20;11.40;99.90
59923;DHT22;45778;51.142;3.732;2023-03-12T16:12:48;11.40;99.90
59923;DHT22;45778;51.142;3.732;2023-03-12T16:15:37;11.30;99.90
59923;DHT22;45778;51.142;3.732;2023-03-12T16:18:03;11.30;99.90
59923;DHT22;45778;51.142;3.732;2023-03-12T16:20:29;11.30;99.90
59923;DHT22;45778;51.142;3.732;2023-03-12T16:22:55;11.30;99.90
59923;DHT22;45778;51.142;3.732;2023-03-12T16:25:22;11.30;99.90
59923;DHT22;45778;51.142;3.732;2023-03-12T16:27:53;11.30;99.90
59923;DHT22;45778;51.142;3.732;2023-03-12T16:30:28;11.30;99.90
59923;DHT22;45778;51.142;3.732;2023-03-12T16:32:54;11.30;99.90
59923;DHT22;45778;51.142;3.732;2023-03-12T16:35:21;11.30;99.90
59923;DHT22;45778;51.142;3.732;2023-03-12T16:37:47;11.30;99.90
59923;DHT22;45778;51.142;3.732;2023-03-12T16:40:15;11.30;99.90
59923;DHT22;45778;51.142;3.732;2023-03-12T16:42:44;11.20;99.90
59923;DHT22;45778;51.142;3.732;2023-03-12T16:45:12;11.20;99.90
59923;DHT22;45778;51.142;3.732;2023-03-12T16:47:40;11.30;99.90
59923;DHT22;45778;51.142;3.732;2023-03-12T16:50:18;11.20;99.90
59923;DHT22;45778;51.142;3.732;2023-03-12T16:52:45;11.20;99.90
59923;DHT22;45778;51.142;3.732;2023-03-12T16:55:29;11.20;99.90
59923;DHT22;45778;51.142;3.732;2023-03-12T16:58:01;11.20;99.90
59923;DHT22;45778;51.142;3.732;2023-03-12T17:00:29;11.20;99.90
59923;DHT22;45778;51.142;3.732;2023-03-12T17:02:57;11.10;99.90
59923;DHT22;45778;51.142;3.732;2023-03-12T17:05:25;11.10;99.90
59923;DHT22;45778;51.142;3.732;2023-03-12T17:07:50;11.10;99.90
59923;DHT22;45778;51.142;3.732;2023-03-12T17:10:17;11.10;99.90
59923;DHT22;45778;51.142;3.732;2023-03-12T17:12:43;11.00;99.90
59923;DHT22;45778;51.142;3.732;2023-03-12T17:15:13;11.00;99.90
59923;DHT22;45778;51.142;3.732;2023-03-12T17:17:40;11.00;99.90
59923;DHT22;45778;51.142;3.732;2023-03-12T17:20:06;11.00;99.90
59923;DHT22;45778;51.142;3.732;2023-03-12T17:22:35;11.00;99.90
59923;DHT22;45778;51.142;3.732;2023-03-12T17:25:01;11.00;99.90
59923;DHT22;45778;51.142;3.732;2023-03-12T17:27:27;11.00;99.90
59923;DHT22;45778;51.142;3.732;2023-03-12T17:29:52;11.00;99.90
59923;DHT22;45778;51.142;3.732;2023-03-12T17:32:18;10.90;99.90
59923;DHT22;45778;51.142;3.732;2023-03-12T17:34:44;10.90;99.90
59923;DHT22;45778;51.142;3.732;2023-03-12T17:37:09;10.90;99.90
59923;DHT22;45778;51.142;3.732;2023-03-12T17:39:35;10.80;99.90
59923;DHT22;45778;51.142;3.732;2023-03-12T17:42:01;10.80;99.90
59923;DHT22;45778;51.142;3.732;2023-03-12T17:44:31;10.80;99.90
59923;DHT22;45778;51.142;3.732;2023-03-12T17:47:02;10.70;99.90
59923;DHT22;45778;51.142;3.732;2023-03-12T17:49:28;10.70;99.90
59923;DHT22;45778;51.142;3.732;2023-03-12T17:51:54;10.70;99.90
59923;DHT22;45778;51.142;3.732;2023-03-12T17:54:19;10.60;99.90
59923;DHT22;45778;51.142;3.732;2023-03-12T17:56:46;10.60;99.90
59923;DHT22;45778;51.142;3.732;2023-03-12T17:59:12;10.60;99.90